Weather at Kiunga Airport

Public forecast

Using degrees Celsius for public forecast. Weather courtesy of forecast.io.

Closest aviation weather report (METAR) to Kiunga Airport

Report is more than 6 hours old.

Closest report is Mount Hagen Kagamuga Airport, 181.1 nm (335.3 km) E.

2024/06/22 09:00 (retrieved 10 hours ago)

AYMH 220900Z 28011KT 9999 SCT040 20/16 Q1021

Closest aviation forecast (TAF) to Kiunga Airport

Closest forecast is Bandanaira Airport, 686.9 nm (1,272.1 km) W.

2024/06/22 18:00 (retrieved 1 hour ago)

TAF WAPC 221700Z 2218/2306 14014KT 8000 SCT016